createdAt,value
2022-09-28T00:00:01.712Z,2.90
2022-09-28T00:05:14.378Z,3.17
2022-09-28T00:10:16.032Z,2.78
2022-09-28T00:15:17.797Z,2.65
2022-09-28T00:20:19.717Z,3.25
2022-09-28T00:25:22.005Z,2.97
2022-09-28T00:30:23.985Z,2.95
2022-09-28T00:35:25.566Z,3.25
2022-09-28T00:40:27.110Z,3.28
2022-09-28T00:45:28.814Z,2.65
2022-09-28T00:50:35.363Z,3.42
2022-09-28T00:55:42.736Z,3.67
2022-09-28T01:00:44.499Z,3.30
2022-09-28T01:05:48.367Z,3.38
2022-09-28T01:10:51.172Z,3.28
2022-09-28T01:16:04.379Z,3.63
2022-09-28T01:21:18.695Z,3.25
2022-09-28T01:26:35.938Z,3.03
2022-09-28T01:31:44.086Z,3.15
2022-09-28T01:36:51.029Z,3.75
2022-09-28T01:41:55.797Z,3.38
2022-09-28T01:47:04.311Z,3.40
2022-09-28T01:52:17.243Z,3.60
2022-09-28T01:57:34.139Z,3.28
2022-09-28T02:02:42.561Z,3.35
2022-09-28T02:07:48.395Z,2.80
2022-09-28T02:13:40.556Z,3.75
2022-09-28T02:18:43.402Z,3.50
2022-09-28T02:23:58.053Z,3.00
2022-09-28T02:29:00.104Z,3.60
2022-09-28T02:34:01.814Z,3.38
2022-09-28T02:39:03.707Z,3.55
2022-09-28T02:44:20.528Z,2.72
2022-09-28T02:49:37.269Z,3.45
2022-09-28T02:55:06.074Z,3.05
2022-09-28T03:00:12.630Z,3.92
2022-09-28T03:05:22.963Z,4.15
2022-09-28T03:10:46.677Z,4.18
2022-09-28T03:15:49.686Z,3.85
2022-09-28T03:20:52.544Z,3.50
2022-09-28T03:25:54.792Z,4.00
2022-09-28T03:30:56.775Z,4.60
2022-09-28T03:35:58.755Z,18.13
2022-09-28T03:41:01.136Z,13.68
2022-09-28T03:46:09.002Z,18.80
2022-09-28T03:51:16.296Z,14.35
2022-09-28T03:56:18.120Z,7.18
2022-09-28T04:01:20.633Z,5.97
2022-09-28T04:06:23.434Z,5.68
2022-09-28T04:11:25.395Z,5.28
2022-09-28T04:16:27.418Z,5.53
2022-09-28T04:21:37.398Z,5.57
2022-09-28T04:26:44.057Z,4.72
2022-09-28T04:31:51.909Z,5.30
2022-09-28T04:36:54.834Z,4.70
2022-09-28T04:41:56.435Z,4.88
2022-09-28T04:47:00.695Z,4.93
2022-09-28T04:52:23.561Z,5.63
2022-09-28T04:57:25.189Z,6.30
2022-09-28T05:02:27.754Z,4.93
2022-09-28T05:07:47.841Z,5.20
2022-09-28T05:12:49.508Z,5.05
2022-09-28T05:17:53.061Z,5.65
2022-09-28T05:23:00.859Z,5.22
2022-09-28T05:28:03.387Z,5.18
2022-09-28T05:33:24.073Z,5.35
2022-09-28T05:38:37.312Z,5.40
2022-09-28T05:43:39.380Z,5.50
2022-09-28T05:48:41.000Z,6.10
2022-09-28T05:53:42.732Z,6.30
2022-09-28T05:58:44.800Z,6.65
2022-09-28T06:03:47.335Z,6.18
2022-09-28T06:08:50.326Z,7.13
2022-09-28T06:14:10.848Z,6.45
2022-09-28T06:19:13.628Z,7.82
2022-09-28T06:24:35.120Z,7.82
2022-09-28T06:29:36.925Z,8.10
2022-09-28T06:34:39.032Z,7.40
2022-09-28T06:39:41.201Z,8.15
2022-09-28T06:44:42.845Z,8.13
2022-09-28T06:50:12.070Z,6.93
2022-09-28T06:55:46.006Z,8.23
2022-09-28T07:00:50.299Z,8.20
2022-09-28T07:05:54.666Z,9.30
2022-09-28T07:11:16.866Z,8.85
2022-09-28T07:16:42.452Z,9.27
2022-09-28T07:22:03.137Z,8.25
2022-09-28T07:27:07.027Z,8.10
2022-09-28T07:32:28.938Z,9.23
2022-09-28T07:37:31.200Z,9.00
2022-09-28T07:42:32.996Z,9.60
2022-09-28T07:47:35.335Z,10.95
2022-09-28T07:52:58.699Z,9.75
2022-09-28T07:58:07.832Z,10.15
2022-09-28T08:03:32.954Z,10.00
2022-09-28T08:08:35.644Z,10.90
2022-09-28T08:13:38.300Z,11.38
2022-09-28T08:19:06.266Z,11.55
2022-09-28T08:24:07.951Z,11.40
2022-09-28T08:29:09.936Z,11.18
2022-09-28T08:34:38.745Z,11.77
2022-09-28T08:39:56.290Z,10.77
2022-09-28T08:45:24.917Z,11.00
2022-09-28T08:51:01.826Z,11.45
2022-09-28T08:56:31.646Z,10.02
2022-09-28T09:01:39.019Z,11.25
2022-09-28T09:07:14.606Z,11.60
2022-09-28T09:12:50.263Z,10.35
2022-09-28T09:18:20.017Z,12.13
2022-09-28T09:23:57.761Z,11.15
2022-09-28T09:29:27.195Z,10.75
2022-09-28T09:34:37.916Z,10.88
2022-09-28T09:40:30.489Z,9.55
2022-09-28T09:46:12.004Z,7.88
2022-09-28T09:51:48.792Z,10.05
2022-09-28T09:56:56.865Z,8.75
2022-09-28T10:02:28.186Z,8.52
2022-09-28T10:08:00.073Z,8.65
2022-09-28T10:13:02.093Z,7.57
2022-09-28T10:18:10.344Z,8.02
2022-09-28T10:23:36.807Z,8.32
2022-09-28T10:28:55.832Z,7.65
2022-09-28T10:33:58.497Z,6.95
2022-09-28T10:39:09.310Z,7.80
2022-09-28T10:44:16.926Z,6.75
2022-09-28T10:49:47.052Z,5.88
2022-09-28T10:54:53.759Z,5.40
2022-09-28T10:59:57.308Z,5.13
2022-09-28T11:05:27.726Z,4.30
2022-09-28T11:10:33.207Z,3.53
2022-09-28T11:15:46.066Z,3.60
2022-09-28T11:21:14.320Z,3.95
2022-09-28T11:26:25.211Z,4.18
2022-09-28T11:31:29.265Z,4.05
2022-09-28T11:37:11.166Z,3.88
2022-09-28T11:42:35.539Z,3.58
2022-09-28T11:47:40.506Z,3.47
2022-09-28T11:53:10.185Z,3.33
2022-09-28T11:58:14.320Z,2.67
2022-09-28T12:03:39.393Z,3.85
2022-09-28T12:08:47.325Z,3.67
2022-09-28T12:14:21.577Z,3.28
2022-09-28T12:19:39.052Z,2.47
2022-09-28T12:24:45.658Z,3.63
2022-09-28T12:29:50.401Z,2.53
2022-09-28T12:34:52.781Z,2.35
2022-09-28T12:40:09.191Z,3.00
2022-09-28T12:45:47.920Z,2.83
2022-09-28T12:51:15.784Z,1.98
2022-09-28T12:56:29.404Z,1.17
2022-09-28T13:01:49.871Z,1.42
2022-09-28T13:07:13.785Z,1.10
2022-09-28T13:12:44.881Z,1.45
2022-09-28T13:17:57.835Z,1.23
2022-09-28T13:23:25.361Z,1.67
2022-09-28T13:28:43.003Z,1.60
2022-09-28T13:46:39.614Z,1.85
2022-09-28T14:04:22.203Z,2.08
2022-09-28T14:09:48.522Z,2.08
2022-09-28T14:14:51.828Z,1.98
2022-09-28T14:20:07.567Z,1.52
2022-09-28T14:25:25.848Z,1.67
2022-09-28T14:30:48.169Z,1.45
2022-09-28T14:35:59.615Z,1.25
2022-09-28T14:41:10.232Z,1.50
2022-09-28T14:46:12.251Z,1.30
2022-09-28T14:51:26.539Z,1.60
2022-09-28T14:56:32.702Z,2.28
2022-09-28T15:01:36.148Z,1.90
2022-09-28T15:06:46.492Z,1.17
2022-09-28T15:11:47.983Z,1.23
2022-09-28T15:16:50.308Z,0.93
2022-09-28T15:21:52.088Z,1.88
2022-09-28T15:26:53.559Z,1.20
2022-09-28T15:31:55.748Z,1.10
2022-09-28T15:36:58.819Z,1.17
2022-09-28T15:42:01.179Z,0.82
2022-09-28T15:47:16.223Z,1.48
2022-09-28T15:52:52.951Z,1.25
2022-09-28T15:58:12.510Z,1.38
2022-09-28T16:03:16.840Z,1.38
2022-09-28T16:08:22.027Z,1.30
2022-09-28T16:13:24.379Z,1.40
2022-09-28T16:18:30.204Z,1.25
2022-09-28T16:23:34.996Z,1.15
2022-09-28T16:28:36.496Z,1.50
2022-09-28T16:33:39.785Z,1.52
2022-09-28T16:38:46.560Z,1.50
2022-09-28T16:43:50.148Z,1.30
2022-09-28T16:48:52.001Z,1.30
2022-09-28T16:54:12.685Z,1.80
2022-09-28T16:59:15.284Z,1.80
2022-09-28T17:04:16.871Z,1.90
2022-09-28T17:09:18.324Z,2.45
2022-09-28T17:14:23.323Z,2.80
2022-09-28T17:19:25.782Z,2.40
2022-09-28T17:24:28.006Z,2.67
2022-09-28T17:29:30.083Z,2.10
2022-09-28T17:34:31.787Z,2.03
2022-09-28T17:39:34.425Z,2.67
2022-09-28T17:44:36.900Z,2.80
2022-09-28T17:49:38.782Z,2.80
2022-09-28T17:54:42.100Z,3.40
2022-09-28T17:59:43.735Z,3.47
2022-09-28T18:04:52.243Z,3.17
2022-09-28T18:09:56.887Z,3.70
2022-09-28T18:14:59.312Z,3.53
2022-09-28T18:20:01.468Z,3.80
2022-09-28T18:25:05.160Z,5.18
2022-09-28T18:30:07.130Z,6.90
2022-09-28T18:35:11.740Z,5.63
2022-09-28T18:40:15.144Z,5.20
2022-09-28T18:45:18.953Z,3.78
2022-09-28T18:50:21.278Z,5.32
2022-09-28T18:55:23.642Z,4.68
2022-09-28T19:00:26.712Z,4.80
2022-09-28T19:05:28.584Z,4.28
2022-09-28T19:10:30.168Z,4.22
2022-09-28T19:15:32.916Z,4.75
2022-09-28T19:20:34.445Z,5.18
2022-09-28T19:25:36.653Z,5.03
2022-09-28T19:30:40.039Z,5.20
2022-09-28T19:35:42.105Z,4.70
2022-09-28T19:40:45.806Z,5.78
2022-09-28T19:45:52.956Z,5.22
2022-09-28T19:51:03.946Z,4.00
2022-09-28T19:56:05.564Z,11.15
2022-09-28T20:01:07.463Z,5.65
2022-09-28T20:06:11.015Z,6.07
2022-09-28T20:11:15.850Z,6.35
2022-09-28T20:16:20.557Z,6.78
2022-09-28T20:21:26.510Z,9.80
2022-09-28T20:26:29.153Z,10.10
2022-09-28T20:31:31.895Z,8.00
2022-09-28T20:36:34.836Z,10.15
2022-09-28T20:41:36.845Z,9.15
2022-09-28T20:46:39.223Z,9.13
2022-09-28T20:51:40.883Z,7.95
2022-09-28T20:56:43.194Z,8.00
2022-09-28T21:01:45.778Z,7.55
2022-09-28T21:06:48.577Z,5.63
2022-09-28T21:11:50.019Z,6.53
2022-09-28T21:16:53.338Z,5.45
2022-09-28T21:21:55.294Z,5.55
2022-09-28T21:26:59.146Z,5.75
2022-09-28T21:32:02.033Z,5.53
2022-09-28T21:37:04.094Z,5.88
2022-09-28T21:42:06.849Z,4.88
2022-09-28T21:47:09.873Z,5.25
2022-09-28T21:52:11.357Z,4.60
2022-09-28T21:57:13.265Z,4.40
2022-09-28T22:02:15.339Z,5.28
2022-09-28T22:07:17.866Z,5.15
2022-09-28T22:12:19.875Z,5.60
2022-09-28T22:17:22.561Z,6.07
2022-09-28T22:22:28.942Z,5.72
2022-09-28T22:27:32.151Z,5.85
2022-09-28T22:32:33.845Z,5.22
2022-09-28T22:37:35.888Z,5.40
2022-09-28T22:42:38.679Z,5.60
2022-09-28T22:47:40.843Z,5.82
2022-09-28T22:52:42.466Z,5.97
2022-09-28T22:57:44.438Z,5.55
2022-09-28T23:02:46.515Z,5.85
2022-09-28T23:07:48.959Z,6.35
2022-09-28T23:12:54.749Z,6.93
2022-09-28T23:17:56.494Z,6.10
2022-09-28T23:22:58.315Z,5.85
2022-09-28T23:27:59.943Z,6.30
2022-09-28T23:33:02.308Z,6.00
2022-09-28T23:38:04.617Z,5.60
2022-09-28T23:43:06.848Z,5.65
2022-09-28T23:48:09.355Z,5.97
2022-09-28T23:53:14.413Z,7.10
2022-09-28T23:58:16.705Z,6.47
